Time;durP1;ratioP1;P1;durP2;ratioP2;P2;SDS_P1;SDS_P2;PMS_P1;PMS_P2;Temp;Humidity;BMP_temperature;BMP_pressure;BME280_temperature;BME280_humidity;BME280_pressure;Samples;Min_cycle;Max_cycle;Signal;HPM_P1;HPM_P2
2021/10/10 00:01:12;;;;;;;;;;;;;;;8.74;80.18;100628.97;5015620;28;842;-60
2021/10/10 00:03:39;;;;;;;;;;;;;;;8.78;80.07;100627.06;5015522;28;1126;-60
2021/10/10 00:06:06;;;;;;;;;;;;;;;8.83;80.12;100623.97;4997765;28;1939;-60
2021/10/10 00:08:35;;;;;;;;;;;;;;;8.85;79.69;100623.63;5015763;28;811;-59
2021/10/10 00:11:01;;;;;;;;;;;;;;;8.81;79.94;100631.03;5015201;28;890;-60
2021/10/10 00:13:27;;;;;;;;;;;;;;;8.78;79.79;100636.13;5015320;28;871;-59
2021/10/10 00:15:54;;;;;;;;;;;;;;;8.74;80.07;100627.00;5015503;28;1001;-61
2021/10/10 00:18:20;;;;;;;;;;;;;;;8.69;80.55;100630.09;5015942;28;764;-60
2021/10/10 00:20:47;;;;;;;;;;;;;;;8.63;80.49;100636.28;5014948;28;1416;-59
2021/10/10 00:23:14;;;;;;;;;;;;;;;8.58;80.66;100626.38;5015411;28;877;-59
2021/10/10 00:25:57;;;;;;;;;;;;;;;8.56;80.95;100620.44;4997370;28;1379;-60
2021/10/10 00:28:24;;;;;;;;;;;;;;;8.54;80.45;100636.53;5014763;28;1910;-60
2021/10/10 00:30:50;;;;;;;;;;;;;;;8.52;80.98;100630.59;5014823;28;823;-60
2021/10/10 00:33:17;;;;;;;;;;;;;;;8.48;80.58;100627.78;5014718;28;811;-60
2021/10/10 00:35:43;;;;;;;;;;;;;;;8.47;80.92;100639.97;5014697;28;893;-59
2021/10/10 00:38:09;;;;;;;;;;;;;;;8.48;80.81;100633.28;4997099;28;1212;-60
2021/10/10 00:40:36;;;;;;;;;;;;;;;8.47;80.99;100617.94;5014695;28;838;-60
2021/10/10 00:43:02;;;;;;;;;;;;;;;8.46;81.25;100621.03;5014539;28;850;-59
2021/10/10 00:45:29;;;;;;;;;;;;;;;8.48;80.89;100614.00;5014560;28;795;-59
2021/10/10 00:47:56;;;;;;;;;;;;;;;8.51;80.76;100615.22;5014371;28;1910;-60
2021/10/10 00:50:23;;;;;;;;;;;;;;;8.51;80.41;100607.75;4996884;28;1197;-60
2021/10/10 00:52:50;;;;;;;;;;;;;;;8.53;80.70;100604.63;5014463;28;819;-60
2021/10/10 00:55:20;;;;;;;;;;;;;;;8.53;80.51;100608.16;5013916;28;858;-60
2021/10/10 00:57:48;;;;;;;;;;;;;;;8.56;80.14;100601.16;5014293;28;869;-60
2021/10/10 01:00:14;;;;;;;;;;;;;;;8.54;80.14;100596.00;5014236;28;893;-60
2021/10/10 01:02:41;;;;;;;;;;;;;;;8.54;80.33;100606.22;5014264;28;858;-59
2021/10/10 01:05:08;;;;;;;;;;;;;;;8.57;79.85;100595.25;5014131;28;877;-59
2021/10/10 01:07:34;;;;;;;;;;;;;;;8.59;79.75;100598.41;5014412;28;1890;-59
2021/10/10 01:10:01;;;;;;;;;;;;;;;8.61;80.34;100589.00;5014077;28;811;-60
2021/10/10 01:12:28;;;;;;;;;;;;;;;8.59;80.25;100590.16;5013998;28;803;-60
2021/10/10 01:14:55;;;;;;;;;;;;;;;8.61;80.03;100595.31;5014000;28;799;-60
2021/10/10 01:17:24;;;;;;;;;;;;;;;8.61;79.63;100594.53;5013902;28;880;-60
2021/10/10 01:19:51;;;;;;;;;;;;;;;8.59;80.11;100598.41;5013744;28;1417;-60
2021/10/10 01:22:17;;;;;;;;;;;;;;;8.57;79.46;100597.22;5013839;28;857;-60
2021/10/10 01:24:43;;;;;;;;;;;;;;;8.57;79.73;100597.22;4996109;28;1316;-60
2021/10/10 01:27:10;;;;;;;;;;;;;;;8.55;79.88;100592.06;5013632;28;1914;-60
2021/10/10 01:29:35;;;;;;;;;;;;;;;8.56;79.81;100590.91;5013716;28;869;-59
2021/10/10 01:32:02;;;;;;;;;;;;;;;8.57;79.95;100594.44;5013645;28;865;-60
2021/10/10 01:34:29;;;;;;;;;;;;;;;8.57;79.86;100584.22;5013690;28;815;-60
2021/10/10 01:36:55;;;;;;;;;;;;;;;8.58;79.53;100596.84;5013524;28;902;-59
2021/10/10 01:39:22;;;;;;;;;;;;;;;8.59;80.08;100586.63;5013487;28;848;-60
2021/10/10 01:41:49;;;;;;;;;;;;;;;8.57;79.88;100589.72;5013482;28;835;-59
2021/10/10 01:44:16;;;;;;;;;;;;;;;8.58;79.34;100596.84;5013359;28;846;-60
2021/10/10 01:46:42;;;;;;;;;;;;;;;8.60;79.77;100599.25;5013374;28;1953;-60
2021/10/10 01:49:10;;;;;;;;;;;;;;;8.62;80.07;100594.16;4995727;28;1268;-60
2021/10/10 01:51:37;;;;;;;;;;;;;;;8.61;79.59;100603.56;5011750;28;1345;-60
2021/10/10 01:54:04;;;;;;;;;;;;;;;8.63;79.67;100605.97;5013221;28;834;-60
2021/10/10 01:56:30;;;;;;;;;;;;;;;8.63;79.66;100611.47;5013125;28;882;-60
2021/10/10 01:58:57;;;;;;;;;;;;;;;8.63;79.47;100606.75;5013235;28;878;-60
2021/10/10 02:01:23;;;;;;;;;;;;;;;8.63;79.04;100609.50;5013169;28;811;-60
2021/10/10 02:03:50;;;;;;;;;;;;;;;8.61;79.31;100597.28;5013031;28;855;-60
2021/10/10 02:06:16;;;;;;;;;;;;;;;8.59;78.88;100594.88;5012832;28;1951;-60
2021/10/10 02:08:43;;;;;;;;;;;;;;;8.54;79.06;100587.72;5012677;28;866;-60
2021/10/10 02:11:09;;;;;;;;;;;;;;;8.52;79.43;100600.28;5012947;28;803;-60
2021/10/10 02:13:36;;;;;;;;;;;;;;;8.54;79.47;100596.00;5012895;28;904;-60
2021/10/10 02:16:02;;;;;;;;;;;;;;;8.57;79.32;100592.47;4995215;28;1027;-60
2021/10/10 02:18:29;;;;;;;;;;;;;;;8.56;79.33;100592.88;5012649;28;1312;-60
2021/10/10 02:20:56;;;;;;;;;;;;;;;8.57;79.16;100591.69;5012793;28;780;-60
2021/10/10 02:23:22;;;;;;;;;;;;;;;8.54;79.08;100581.44;4995095;28;863;-60
2021/10/10 02:25:48;;;;;;;;;;;;;;;8.51;78.79;100582.16;5012664;28;855;-60
2021/10/10 02:28:15;;;;;;;;;;;;;;;8.47;79.27;100582.13;5012567;28;1975;-60
2021/10/10 02:30:41;;;;;;;;;;;;;;;8.47;79.35;100581.28;5012610;28;819;-60
2021/10/10 02:33:08;;;;;;;;;;;;;;;8.47;79.08;100582.13;5012561;28;811;-60
2021/10/10 02:35:35;;;;;;;;;;;;;;;8.47;79.13;100584.88;5012868;28;791;-59
2021/10/10 02:38:01;;;;;;;;;;;;;;;8.49;79.05;100593.56;5012712;28;823;-59
2021/10/10 02:40:28;;;;;;;;;;;;;;;8.51;79.14;100580.22;5012535;28;855;-60
2021/10/10 02:42:54;;;;;;;;;;;;;;;8.50;78.76;100578.59;5012534;28;839;-60
2021/10/10 02:45:21;;;;;;;;;;;;;;;8.50;78.99;100581.34;5012566;28;827;-60
2021/10/10 02:47:47;;;;;;;;;;;;;;;8.52;79.39;100581.00;5012520;28;1890;-60
2021/10/10 02:50:13;;;;;;;;;;;;;;;8.50;78.73;100580.56;5012411;28;835;-60
2021/10/10 02:52:40;;;;;;;;;;;;;;;8.48;79.37;100585.66;5012452;28;827;-60
2021/10/10 02:55:07;;;;;;;;;;;;;;;8.45;78.82;100583.63;5012107;28;867;-60
2021/10/10 02:57:34;;;;;;;;;;;;;;;8.42;78.38;100578.88;5012182;28;917;-60
2021/10/10 02:59:59;;;;;;;;;;;;;;;8.41;78.55;100572.56;5012041;28;866;-60
2021/10/10 03:02:26;;;;;;;;;;;;;;;8.42;78.63;100589.88;5012062;28;827;-60
2021/10/10 03:04:53;;;;;;;;;;;;;;;8.39;78.26;100586.66;4994451;28;905;-60
2021/10/10 03:07:19;;;;;;;;;;;;;;;8.38;78.00;100598.88;5011920;28;1890;-59
2021/10/10 03:09:45;;;;;;;;;;;;;;;8.38;78.00;100598.03;5011995;28;851;-60
2021/10/10 03:12:12;;;;;;;;;;;;;;;8.38;78.09;100595.28;5011954;28;863;-60
2021/10/10 03:14:40;;;;;;;;;;;;;;;8.38;78.03;100603.56;5011846;28;815;-60
2021/10/10 03:17:06;;;;;;;;;;;;;;;8.36;77.96;100595.69;5012124;28;920;-60
2021/10/10 03:19:33;;;;;;;;;;;;;;;8.35;77.53;100601.56;5011571;28;1219;-59
2021/10/10 03:21:59;;;;;;;;;;;;;;;8.33;77.96;100599.16;5011786;28;875;-60
2021/10/10 03:24:26;;;;;;;;;;;;;;;8.29;77.81;100597.50;5011697;28;811;-60
2021/10/10 03:26:52;;;;;;;;;;;;;;;8.26;77.61;100603.75;5011653;28;1914;-60
2021/10/10 03:29:18;;;;;;;;;;;;;;;8.22;77.36;100611.16;4994155;28;1299;-60
2021/10/10 03:31:45;;;;;;;;;;;;;;;8.20;77.58;100605.22;5011737;28;847;-60
2021/10/10 03:34:12;;;;;;;;;;;;;;;8.20;77.80;100610.75;5011783;28;855;-60
2021/10/10 03:36:38;;;;;;;;;;;;;;;8.17;76.98;100615.00;5011623;28;796;-60
2021/10/10 03:39:05;;;;;;;;;;;;;;;8.16;76.86;100616.16;5011637;28;933;-59
2021/10/10 03:41:31;;;;;;;;;;;;;;;8.16;76.85;100621.69;5011647;28;815;-60
2021/10/10 03:43:58;;;;;;;;;;;;;;;8.15;76.69;100629.16;5011602;28;905;-60
2021/10/10 03:46:24;;;;;;;;;;;;;;;8.16;76.22;100636.22;5011591;28;1890;-60
2021/10/10 03:48:50;;;;;;;;;;;;;;;8.18;76.63;100635.88;5011604;28;830;-60
2021/10/10 03:51:17;;;;;;;;;;;;;;;8.15;76.48;100648.44;5011643;28;823;-60
2021/10/10 03:56:10;;;;;;;;;;;;;;;8.13;76.42;100630.69;5011539;28;783;-60
2021/10/10 03:58:39;;;;;;;;;;;;;;;8.11;75.95;100627.50;5011555;28;799;-60
2021/10/10 04:01:05;;;;;;;;;;;;;;;8.09;76.10;100621.56;5011557;28;859;-59
2021/10/10 04:03:32;;;;;;;;;;;;;;;8.10;76.09;100620.38;5011438;28;839;-60
2021/10/10 04:06:01;;;;;;;;;;;;;;;8.07;76.17;100605.41;5011509;28;853;-60
2021/10/10 04:08:27;;;;;;;;;;;;;;;8.06;75.72;100614.81;5011381;28;1942;-60
2021/10/10 04:10:54;;;;;;;;;;;;;;;8.06;76.12;100611.25;5011344;28;918;-60
2021/10/10 04:13:21;;;;;;;;;;;;;;;8.07;75.62;100605.41;4993779;28;1205;-60
2021/10/10 04:15:48;;;;;;;;;;;;;;;8.06;75.77;100609.28;5011189;28;884;-59
2021/10/10 04:18:14;;;;;;;;;;;;;;;8.06;75.70;100605.75;5011354;28;835;-60
2021/10/10 04:20:41;;;;;;;;;;;;;;;8.05;75.82;100602.22;5011171;28;1285;-60
2021/10/10 04:23:07;;;;;;;;;;;;;;;8.07;75.83;100602.66;5011499;28;851;-60
2021/10/10 04:25:33;;;;;;;;;;;;;;;8.07;75.87;100596.34;5011281;28;803;-59
2021/10/10 04:28:00;;;;;;;;;;;;;;;8.10;75.80;100592.84;5011104;28;1950;-60
2021/10/10 04:30:27;;;;;;;;;;;;;;;8.11;75.56;100592.50;5012264;28;827;-60
2021/10/10 04:32:54;;;;;;;;;;;;;;;8.14;75.57;100599.22;5015074;28;804;-59
2021/10/10 04:35:20;;;;;;;;;;;;;;;8.15;75.90;100609.06;5015071;28;827;-60
2021/10/10 04:37:47;;;;;;;;;;;;;;;8.17;75.88;100599.28;5014751;28;846;-60
2021/10/10 04:40:13;;;;;;;;;;;;;;;8.18;75.65;100605.59;5014662;28;835;-60
2021/10/10 04:42:39;;;;;;;;;;;;;;;8.19;75.28;100609.91;5014612;28;858;-59
2021/10/10 04:45:07;;;;;;;;;;;;;;;8.23;75.75;100607.22;5014831;28;799;-60
2021/10/10 04:47:33;;;;;;;;;;;;;;;8.28;75.41;100598.66;5014868;28;1953;-59
2021/10/10 04:50:00;;;;;;;;;;;;;;;8.29;75.27;100603.00;5014501;28;799;-60
2021/10/10 04:52:27;;;;;;;;;;;;;;;8.31;74.77;100600.69;5014453;28;866;-60
2021/10/10 04:54:53;;;;;;;;;;;;;;;8.34;75.07;100620.03;5014266;28;855;-60
2021/10/10 04:57:20;;;;;;;;;;;;;;;8.36;74.51;100620.47;5014322;28;878;-60
2021/10/10 05:17:07;;;;;;;;;;;;;;;8.86;73.20;100605.94;5788536;23;1593;-59
2021/10/10 05:19:34;;;;;;;;;;;;;;;8.90;73.21;100604.03;5014074;28;877;-59
2021/10/10 05:21:59;;;;;;;;;;;;;;;8.97;72.85;100607.66;5014278;28;892;-59
2021/10/10 05:27:28;;;;;;;;;;;;;;;9.18;72.99;100600.88;5013820;28;1984;-60
2021/10/10 05:29:54;;;;;;;;;;;;;;;9.24;72.48;100601.31;5013716;28;874;-59
2021/10/10 05:32:20;;;;;;;;;;;;;;;9.33;72.13;100604.59;5013764;28;818;-60
2021/10/10 05:34:46;;;;;;;;;;;;;;;9.35;72.13;100607.78;5013732;28;927;-59
2021/10/10 05:37:13;;;;;;;;;;;;;;;9.44;71.82;100613.03;5013665;28;796;-59
2021/10/10 05:39:39;;;;;;;;;;;;;;;9.54;71.50;100604.88;5013577;28;850;-59
2021/10/10 05:42:06;;;;;;;;;;;;;;;9.70;70.95;100623.97;4994776;28;1174;-59
2021/10/10 05:44:33;;;;;;;;;;;;;;;9.86;70.89;100634.00;5013434;28;791;-59
2021/10/10 05:47:00;;;;;;;;;;;;;;;10.01;70.14;100624.72;5013554;28;1878;-59
2021/10/10 05:49:27;;;;;;;;;;;;;;;10.03;70.10;100630.66;5013423;28;795;-59
2021/10/10 05:51:53;;;;;;;;;;;;;;;10.01;69.53;100636.56;5013367;28;815;-60
2021/10/10 05:54:21;;;;;;;;;;;;;;;10.05;70.17;100619.22;5013378;28;834;-60
2021/10/10 05:56:48;;;;;;;;;;;;;;;10.09;69.69;100639.38;5013235;28;878;-60
2021/10/10 05:59:16;;;;;;;;;;;;;;;10.07;69.74;100617.69;5013200;28;865;-59
2021/10/10 06:01:45;;;;;;;;;;;;;;;10.13;69.56;100632.72;5013185;28;858;-60
2021/10/10 06:04:12;;;;;;;;;;;;;;;10.17;69.57;100633.56;5013228;28;826;-60
2021/10/10 06:06:38;;;;;;;;;;;;;;;10.24;69.79;100635.59;5013015;28;1890;-60
2021/10/10 06:09:06;;;;;;;;;;;;;;;10.30;69.21;100636.88;5013057;28;815;-60
2021/10/10 06:11:33;;;;;;;;;;;;;;;10.32;69.21;100631.75;4995364;28;1225;-59
2021/10/10 06:14:00;;;;;;;;;;;;;;;10.36;69.11;100651.94;5012928;28;799;-60
2021/10/10 06:16:27;;;;;;;;;;;;;;;10.38;68.79;100634.97;5012897;28;1008;-59
2021/10/10 06:18:54;;;;;;;;;;;;;;;10.48;68.69;100631.53;4995128;28;1510;-60
2021/10/10 06:24:19;;;;;;;;;;;;;;;10.71;68.68;100634.09;5012752;28;659;-60
2021/10/10 06:26:45;;;;;;;;;;;;;;;10.78;68.42;100633.34;5012672;28;1913;-60
2021/10/10 06:29:13;;;;;;;;;;;;;;;10.83;68.04;100628.22;4995051;28;1296;-60
2021/10/10 06:31:40;;;;;;;;;;;;;;;10.97;68.29;100624.00;5012737;28;814;-60
2021/10/10 06:34:05;;;;;;;;;;;;;;;11.15;67.92;100640.69;5012865;28;886;-60
2021/10/10 06:36:33;;;;;;;;;;;;;;;11.30;67.91;100642.34;4994899;28;2041;-60
2021/10/10 06:39:03;;;;;;;;;;;;;;;11.43;66.52;100637.28;5012575;28;886;-60
2021/10/10 06:41:29;;;;;;;;;;;;;;;11.45;66.41;100641.25;5012536;28;822;-60
2021/10/10 06:43:57;;;;;;;;;;;;;;;11.42;66.96;100632.94;5012406;28;850;-60
2021/10/10 06:46:25;;;;;;;;;;;;;;;11.35;67.01;100638.44;5012524;28;1953;-60
2021/10/10 06:48:52;;;;;;;;;;;;;;;11.48;66.58;100631.41;5012425;28;814;-60
2021/10/10 06:51:19;;;;;;;;;;;;;;;11.71;66.17;100622.75;5012312;28;834;-60
2021/10/10 06:53:45;;;;;;;;;;;;;;;11.92;66.08;100627.59;5011949;28;937;-60
2021/10/10 06:56:11;;;;;;;;;;;;;;;12.22;65.29;100632.03;5012191;28;811;-60
2021/10/10 06:58:38;;;;;;;;;;;;;;;12.51;64.09;100627.31;5012481;28;936;-60
2021/10/10 07:01:05;;;;;;;;;;;;;;;12.55;63.41;100625.34;5012145;28;858;-60
2021/10/10 07:03:34;;;;;;;;;;;;;;;12.65;63.40;100632.06;5012146;28;811;-60
2021/10/10 07:06:01;;;;;;;;;;;;;;;12.71;63.70;100626.91;5012064;28;853;-60
2021/10/10 07:08:27;;;;;;;;;;;;;;;12.86;63.76;100620.94;5011997;28;1890;-59
2021/10/10 07:10:53;;;;;;;;;;;;;;;13.01;62.82;100624.50;5011975;28;833;-60
2021/10/10 07:13:21;;;;;;;;;;;;;;;13.22;61.69;100614.53;5012039;28;841;-59
2021/10/10 07:15:47;;;;;;;;;;;;;;;13.39;61.79;100624.03;5011767;28;993;-61
2021/10/10 07:18:19;;;;;;;;;;;;;;;13.41;61.60;100621.66;5011648;28;1232;-59
2021/10/10 07:26:22;;;;;;;;;;;;;;;13.39;62.00;100610.94;4932410;29;1974;-60
2021/10/10 07:28:50;;;;;;;;;;;;;;;13.34;61.37;100611.38;4971917;28;954;-60
2021/10/10 07:31:16;;;;;;;;;;;;;;;13.45;61.16;100625.22;5011953;28;893;-60
2021/10/10 07:33:43;;;;;;;;;;;;;;;13.50;61.11;100616.47;5011801;28;865;-60
2021/10/10 07:36:10;;;;;;;;;;;;;;;13.68;60.98;100619.97;4994217;28;1181;-60
2021/10/10 07:38:52;;;;;;;;;;;;;;;13.96;59.73;100625.78;5011747;28;866;-60
2021/10/10 07:41:21;;;;;;;;;;;;;;;13.87;59.84;100623.44;5011861;28;850;-60
2021/10/10 07:43:47;;;;;;;;;;;;;;;14.18;59.53;100616.09;4994115;28;1406;-59
2021/10/10 07:46:21;;;;;;;;;;;;;;;14.67;58.35;100618.94;4993511;28;1363;-60
2021/10/10 07:48:48;;;;;;;;;;;;;;;14.67;58.70;100613.38;5011759;28;870;-60
2021/10/10 07:51:16;;;;;;;;;;;;;;;14.69;59.15;100614.53;5011795;28;879;-60
2021/10/10 07:53:44;;;;;;;;;;;;;;;14.34;59.11;100618.38;5011649;28;1039;-60
2021/10/10 07:56:19;;;;;;;;;;;;;;;14.18;60.35;100624.44;5011516;28;799;-60
2021/10/10 07:58:54;;;;;;;;;;;;;;;13.95;60.45;100624.97;4993912;28;1407;-60
2021/10/10 08:01:20;;;;;;;;;;;;;;;13.80;61.64;100621.47;5011522;28;854;-60
2021/10/10 08:03:46;;;;;;;;;;;;;;;13.85;61.79;100625.84;5011394;28;819;-60
2021/10/10 08:06:19;;;;;;;;;;;;;;;14.13;61.16;100618.53;5013798;28;799;-60
2021/10/10 08:08:45;;;;;;;;;;;;;;;14.33;61.04;100621.56;5015451;28;792;-60
2021/10/10 08:11:14;;;;;;;;;;;;;;;14.54;60.04;100615.06;5015235;28;872;-60
2021/10/10 08:13:40;;;;;;;;;;;;;;;14.98;60.30;100619.03;5015111;28;858;-60
2021/10/10 08:16:07;;;;;;;;;;;;;;;15.87;58.75;100614.44;4997555;28;1054;-60
2021/10/10 08:21:36;;;;;;;;;;;;;;;15.30;57.99;100621.50;5015083;28;697;-60
2021/10/10 08:24:03;;;;;;;;;;;;;;;14.93;58.65;100620.28;5015034;28;799;-60
2021/10/10 08:26:30;;;;;;;;;;;;;;;14.90;59.79;100619.13;5014864;28;1985;-60
2021/10/10 08:28:58;;;;;;;;;;;;;;;15.73;59.10;100611.88;5014919;28;851;-60
2021/10/10 08:31:26;;;;;;;;;;;;;;;16.16;56.45;100600.91;5014847;28;807;-60
2021/10/10 08:33:53;;;;;;;;;;;;;;;16.24;56.46;100596.78;5014872;28;796;-60
2021/10/10 08:36:19;;;;;;;;;;;;;;;17.12;53.48;100578.94;5014660;28;851;-60
2021/10/10 08:38:46;;;;;;;;;;;;;;;16.78;54.06;100595.13;5015081;28;867;-60
2021/10/10 08:41:15;;;;;;;;;;;;;;;16.30;56.04;100595.09;5015009;28;830;-60
2021/10/10 08:43:45;;;;;;;;;;;;;;;16.49;57.33;100601.16;5014667;28;811;-61
2021/10/10 08:46:14;;;;;;;;;;;;;;;16.79;54.67;100586.31;5014704;28;830;-60
2021/10/10 08:48:41;;;;;;;;;;;;;;;16.83;53.90;100603.78;5014592;28;1949;-60
2021/10/10 09:03:19;;;;;;;;;;;;;;;15.90;57.28;100592.09;5014822;28;821;-60
2021/10/10 09:05:49;;;;;;;;;;;;;;;15.78;57.95;100583.53;4996738;28;1209;-60
2021/10/10 09:08:16;;;;;;;;;;;;;;;15.81;59.75;100591.84;5014491;28;1906;-60
2021/10/10 09:10:42;;;;;;;;;;;;;;;16.25;58.32;100592.00;4996716;28;1375;-60
2021/10/10 09:13:11;;;;;;;;;;;;;;;16.53;57.95;100599.88;5014191;28;806;-60
2021/10/10 09:15:38;;;;;;;;;;;;;;;16.57;56.94;100577.50;5014287;28;819;-60
2021/10/10 09:18:05;;;;;;;;;;;;;;;16.29;56.63;100589.94;5014159;28;1235;-60
2021/10/10 09:20:39;;;;;;;;;;;;;;;16.37;57.36;100579.47;5014209;28;807;-60
2021/10/10 09:23:06;;;;;;;;;;;;;;;16.64;56.92;100590.56;5014270;28;862;-60
2021/10/10 09:25:35;;;;;;;;;;;;;;;16.93;56.37;100585.28;4996417;28;1241;-60
2021/10/10 09:28:22;;;;;;;;;;;;;;;17.48;55.73;100581.00;5013903;28;1976;-61
2021/10/10 09:30:49;;;;;;;;;;;;;;;17.65;54.85;100575.47;5014179;28;885;-60
2021/10/10 09:33:16;;;;;;;;;;;;;;;17.82;54.85;100595.88;5013874;28;925;-60
2021/10/10 09:35:43;;;;;;;;;;;;;;;17.90;55.06;100597.31;5013929;28;885;-61
2021/10/10 09:38:24;;;;;;;;;;;;;;;17.62;53.75;100607.84;5013774;28;846;-61
2021/10/10 09:40:57;;;;;;;;;;;;;;;17.08;55.46;100608.94;5013725;28;838;-60
2021/10/10 09:43:24;;;;;;;;;;;;;;;16.86;57.51;100616.91;4995913;28;1221;-60
2021/10/10 09:45:55;;;;;;;;;;;;;;;16.71;56.67;100621.16;4996017;28;1289;-60
2021/10/10 09:48:33;;;;;;;;;;;;;;;16.67;58.40;100617.63;4995781;28;2019;-60
2021/10/10 09:51:02;;;;;;;;;;;;;;;16.93;57.99;100618.78;5013321;28;1077;-60
2021/10/10 09:53:32;;;;;;;;;;;;;;;16.98;57.62;100609.13;5013291;28;807;-60
2021/10/10 09:56:03;;;;;;;;;;;;;;;16.89;57.22;100604.09;5013651;28;842;-60
2021/10/10 09:58:43;;;;;;;;;;;;;;;16.77;57.56;100604.69;4995704;28;850;-60
2021/10/10 10:01:18;;;;;;;;;;;;;;;16.66;57.35;100605.69;5013126;28;882;-60
2021/10/10 10:04:01;;;;;;;;;;;;;;;16.51;57.48;100612.69;5013160;28;819;-60
2021/10/10 10:06:28;;;;;;;;;;;;;;;16.24;57.41;100607.16;5013179;28;1979;-60
2021/10/10 10:08:55;;;;;;;;;;;;;;;15.96;58.49;100616.72;5013640;28;988;-60
2021/10/10 10:11:22;;;;;;;;;;;;;;;15.78;58.72;100614.19;5013128;28;854;-60
2021/10/10 10:13:49;;;;;;;;;;;;;;;15.82;58.25;100623.28;5013476;28;810;-60
2021/10/10 10:16:16;;;;;;;;;;;;;;;15.78;59.01;100616.97;5012938;28;934;-60
2021/10/10 10:18:42;;;;;;;;;;;;;;;16.13;58.61;100624.84;5013090;28;1264;-60
2021/10/10 10:21:11;;;;;;;;;;;;;;;16.80;59.42;100624.19;5013116;28;827;-60
2021/10/10 10:23:39;;;;;;;;;;;;;;;17.18;57.79;100625.94;5013254;28;878;-60
2021/10/10 10:26:06;;;;;;;;;;;;;;;17.06;56.87;100624.53;5012966;28;803;-60
2021/10/10 10:28:32;;;;;;;;;;;;;;;17.13;55.93;100622.41;5012258;28;1922;-60
2021/10/10 10:31:00;;;;;;;;;;;;;;;17.11;56.02;100624.84;5013077;28;799;-60
2021/10/10 10:33:31;;;;;;;;;;;;;;;17.07;57.00;100640.88;5012745;28;878;-60
2021/10/10 10:35:58;;;;;;;;;;;;;;;17.08;56.55;100639.66;5012529;28;863;-60
2021/10/10 10:38:46;;;;;;;;;;;;;;;17.18;57.41;100643.47;5012573;28;799;-60
2021/10/10 10:41:31;;;;;;;;;;;;;;;16.95;55.53;100655.47;5012442;28;819;-60
2021/10/10 10:43:58;;;;;;;;;;;;;;;16.84;56.93;100660.44;5012410;28;934;-60
2021/10/10 10:46:25;;;;;;;;;;;;;;;16.96;59.35;100664.63;5012453;28;819;-60
2021/10/10 10:48:52;;;;;;;;;;;;;;;17.30;58.20;100656.00;5012424;28;873;-60
2021/10/10 10:51:23;;;;;;;;;;;;;;;17.53;56.11;100646.78;5012259;28;807;-60
2021/10/10 10:53:50;;;;;;;;;;;;;;;17.03;55.67;100651.31;5012328;28;827;-60
2021/10/10 10:56:33;;;;;;;;;;;;;;;17.05;56.59;100639.75;4994661;28;1217;-60
2021/10/10 10:58:59;;;;;;;;;;;;;;;17.28;56.85;100639.69;5012507;28;803;-60
2021/10/10 11:01:27;;;;;;;;;;;;;;;17.11;55.01;100638.81;5012328;28;791;-60
2021/10/10 11:04:14;;;;;;;;;;;;;;;16.56;55.84;100640.13;5012790;28;788;-60
2021/10/10 11:06:57;;;;;;;;;;;;;;;17.01;55.92;100623.03;5012262;28;1890;-60
2021/10/10 11:09:27;;;;;;;;;;;;;;;17.47;55.35;100626.16;5012049;28;799;-60
2021/10/10 11:11:58;;;;;;;;;;;;;;;17.67;54.65;100614.97;5012159;28;859;-60
2021/10/10 11:14:28;;;;;;;;;;;;;;;17.65;55.81;100629.38;5011971;28;886;-60
2021/10/10 11:17:17;;;;;;;;;;;;;;;17.67;55.67;100620.56;5012144;28;1047;-60
2021/10/10 11:19:44;;;;;;;;;;;;;;;17.59;54.93;100614.31;5011929;28;854;-60
2021/10/10 11:22:11;;;;;;;;;;;;;;;16.97;54.40;100632.69;5011850;28;803;-60
2021/10/10 11:24:37;;;;;;;;;;;;;;;16.45;56.08;100618.00;5011917;28;846;-59
2021/10/10 11:27:09;;;;;;;;;;;;;;;15.96;58.57;100628.69;5011731;28;1975;-60
2021/10/10 11:29:37;;;;;;;;;;;;;;;15.64;58.35;100627.06;5011817;28;791;-60
2021/10/10 11:32:03;;;;;;;;;;;;;;;15.54;59.42;100636.34;5011790;28;870;-59
2021/10/10 11:34:29;;;;;;;;;;;;;;;15.55;58.63;100626.78;5011789;28;830;-60
2021/10/10 11:36:56;;;;;;;;;;;;;;;15.71;59.44;100627.00;5011870;28;791;-60
2021/10/10 11:39:24;;;;;;;;;;;;;;;15.99;58.21;100627.03;5012691;28;818;-59
2021/10/10 11:41:55;;;;;;;;;;;;;;;16.00;57.80;100620.25;5015787;28;842;-60
2021/10/10 11:44:23;;;;;;;;;;;;;;;16.01;57.68;100614.25;5015800;28;802;-59
2021/10/10 11:46:52;;;;;;;;;;;;;;;15.97;57.53;100616.31;5015644;28;1885;-59
2021/10/10 11:49:36;;;;;;;;;;;;;;;15.79;57.37;100612.97;5015666;28;973;-59
2021/10/10 11:52:13;;;;;;;;;;;;;;;15.50;57.60;100611.31;4998034;28;823;-60
2021/10/10 11:54:41;;;;;;;;;;;;;;;15.34;57.82;100610.31;5015834;28;830;-59
2021/10/10 11:57:08;;;;;;;;;;;;;;;15.54;57.84;100602.13;5015525;28;976;-59
2021/10/10 11:59:36;;;;;;;;;;;;;;;15.55;58.06;100600.91;5015530;28;807;-60
2021/10/10 12:02:04;;;;;;;;;;;;;;;15.36;57.98;100591.19;5015467;28;854;-60
2021/10/10 12:04:31;;;;;;;;;;;;;;;15.24;58.79;100590.53;4997835;28;1274;-59
2021/10/10 12:06:57;;;;;;;;;;;;;;;15.49;58.51;100589.44;5015221;28;1911;-60
2021/10/10 12:09:24;;;;;;;;;;;;;;;15.63;57.80;100603.19;5015366;28;890;-60
2021/10/10 12:12:23;;;;;;;;;;;;;;;15.65;57.73;100600.78;5015175;28;827;-60
2021/10/10 12:14:53;;;;;;;;;;;;;;;15.45;57.48;100597.06;4982441;28;1517;-60
2021/10/10 12:17:27;;;;;;;;;;;;;;;15.22;58.32;100597.72;4997239;28;1312;-60
2021/10/10 12:19:54;;;;;;;;;;;;;;;15.07;58.63;100602.66;5015154;28;795;-60
2021/10/10 12:22:20;;;;;;;;;;;;;;;15.10;58.98;100599.81;5015138;28;871;-59
2021/10/10 12:24:48;;;;;;;;;;;;;;;15.36;58.30;100605.13;5015064;28;917;-60
2021/10/10 12:27:44;;;;;;;;;;;;;;;14.90;58.91;100598.84;5015104;28;1973;-60
2021/10/10 12:30:11;;;;;;;;;;;;;;;14.57;60.01;100589.22;5002232;28;1375;-60
2021/10/10 12:32:37;;;;;;;;;;;;;;;14.51;60.12;100586.06;5014908;28;811;-59
2021/10/10 12:35:09;;;;;;;;;;;;;;;14.37;61.14;100581.41;5014861;28;835;-60
2021/10/10 12:37:36;;;;;;;;;;;;;;;14.53;61.22;100585.66;4997149;28;1189;-60
2021/10/10 12:40:03;;;;;;;;;;;;;;;14.41;60.84;100579.38;5014720;28;858;-60
2021/10/10 12:42:48;;;;;;;;;;;;;;;14.26;61.62;100591.84;5014654;28;838;-60
2021/10/10 12:45:27;;;;;;;;;;;;;;;14.08;61.85;100600.28;5014720;28;866;-60
2021/10/10 12:48:05;;;;;;;;;;;;;;;13.90;62.03;100603.19;5014633;28;1889;-60
2021/10/10 12:50:33;;;;;;;;;;;;;;;13.80;62.48;100595.69;5014249;28;874;-60
2021/10/10 12:53:00;;;;;;;;;;;;;;;13.79;63.44;100594.13;5014311;28;803;-60
2021/10/10 12:55:28;;;;;;;;;;;;;;;13.88;63.02;100592.47;5014437;28;795;-60
2021/10/10 12:57:54;;;;;;;;;;;;;;;13.81;63.15;100591.72;5014453;28;795;-60
2021/10/10 13:00:22;;;;;;;;;;;;;;;13.85;63.42;100596.06;5014437;28;807;-60
2021/10/10 13:02:52;;;;;;;;;;;;;;;13.83;63.34;100600.44;5014357;28;874;-60
2021/10/10 13:05:19;;;;;;;;;;;;;;;13.68;63.54;100585.84;5014588;28;831;-59
2021/10/10 13:07:46;;;;;;;;;;;;;;;13.60;64.15;100592.63;4996894;28;1886;-59
2021/10/10 13:10:12;;;;;;;;;;;;;;;13.64;64.24;100596.19;5014839;28;779;-59
2021/10/10 13:12:39;;;;;;;;;;;;;;;13.62;64.13;100588.25;5014163;28;803;-60
2021/10/10 13:15:08;;;;;;;;;;;;;;;13.65;64.46;100579.09;5014123;28;838;-60
2021/10/10 13:17:34;;;;;;;;;;;;;;;13.64;64.20;100577.53;5014445;28;1364;-59
2021/10/10 13:32:12;;;;;;;;;;;;;;;13.34;65.79;100578.06;5014144;28;684;-59
2021/10/10 13:34:39;;;;;;;;;;;;;;;13.32;65.86;100574.09;5013791;28;898;-59
2021/10/10 13:37:05;;;;;;;;;;;;;;;13.23;66.64;100563.41;5013657;28;917;-60
2021/10/10 13:39:31;;;;;;;;;;;;;;;13.03;66.90;100571.38;5013792;28;791;-59
2021/10/10 13:41:57;;;;;;;;;;;;;;;12.84;67.78;100565.09;5013583;28;831;-60
2021/10/10 13:44:26;;;;;;;;;;;;;;;12.73;67.98;100577.38;5013555;28;870;-59
2021/10/10 13:46:53;;;;;;;;;;;;;;;12.81;68.34;100584.50;5013412;28;1906;-60
2021/10/10 13:49:19;;;;;;;;;;;;;;;12.90;67.79;100570.22;5013473;28;898;-60
2021/10/10 13:51:46;;;;;;;;;;;;;;;12.92;67.83;100573.41;5013353;28;878;-60
2021/10/10 13:54:13;;;;;;;;;;;;;;;12.83;67.96;100571.03;5013628;28;807;-59
2021/10/10 13:56:39;;;;;;;;;;;;;;;12.81;68.66;100570.63;5013611;28;846;-59
2021/10/10 13:59:06;;;;;;;;;;;;;;;12.81;68.66;100571.44;5013270;28;858;-59
2021/10/10 14:01:34;;;;;;;;;;;;;;;12.71;68.43;100582.53;5013275;28;890;-60